createdAt,value
2019-02-12T00:02:28.045Z,96.80
2019-02-12T00:07:34.152Z,96.60
2019-02-12T00:12:40.052Z,96.50
2019-02-12T00:17:46.103Z,96.50
2019-02-12T00:22:52.029Z,96.90
2019-02-12T00:27:58.148Z,97.10
2019-02-12T00:33:04.259Z,97.10
2019-02-12T00:38:10.315Z,97.60
2019-02-12T00:43:16.299Z,97.50
2019-02-12T00:48:22.455Z,98.10
2019-02-12T00:53:28.327Z,97.90
2019-02-12T00:58:34.400Z,98.40
2019-02-12T01:03:40.394Z,99.90
2019-02-12T01:08:46.251Z,99.90
2019-02-12T01:13:52.277Z,99.90
2019-02-12T01:18:58.406Z,99.70
2019-02-12T01:24:04.466Z,99.10
2019-02-12T01:29:10.491Z,98.50
2019-02-12T01:34:16.106Z,98.40
2019-02-12T01:39:21.832Z,98.20
2019-02-12T01:44:27.554Z,98.60
2019-02-12T01:49:33.255Z,98.30
2019-02-12T01:54:38.875Z,99.30
2019-02-12T01:59:44.587Z,99.90
2019-02-12T02:04:50.189Z,99.90
2019-02-12T02:09:55.840Z,99.90
2019-02-12T02:15:01.562Z,99.60
2019-02-12T02:20:08.248Z,98.70
2019-02-12T02:25:14.476Z,98.40
2019-02-12T02:30:20.126Z,98.70
2019-02-12T02:35:25.882Z,98.70
2019-02-12T02:40:31.515Z,98.60
2019-02-12T02:45:37.235Z,98.30
2019-02-12T02:50:42.958Z,98.40
2019-02-12T02:55:48.594Z,98.60
2019-02-12T03:00:54.276Z,98.70
2019-02-12T03:05:59.925Z,98.80
2019-02-12T03:11:05.541Z,99.30
2019-02-12T03:16:11.241Z,99.10
2019-02-12T03:21:16.996Z,99.00
2019-02-12T03:26:22.643Z,99.90
2019-02-12T03:31:28.307Z,99.90
2019-02-12T03:36:33.979Z,99.90
2019-02-12T03:41:39.682Z,99.40
2019-02-12T03:46:45.336Z,99.30
2019-02-12T03:51:51.047Z,98.90
2019-02-12T03:56:56.731Z,98.90
2019-02-12T04:02:02.408Z,99.90
2019-02-12T04:07:09.386Z,99.80
2019-02-12T04:12:15.309Z,99.90
2019-02-12T04:17:22.210Z,99.90
2019-02-12T04:22:28.186Z,99.90
2019-02-12T04:27:34.146Z,99.90
2019-02-12T04:32:40.209Z,99.90
2019-02-12T04:37:46.296Z,98.90
2019-02-12T04:42:52.287Z,98.70
2019-02-12T04:47:58.501Z,98.80
2019-02-12T04:53:04.389Z,97.90
2019-02-12T04:58:10.656Z,97.30
2019-02-12T05:03:16.579Z,96.80
2019-02-12T05:08:22.258Z,96.60
2019-02-12T05:13:27.857Z,95.80
2019-02-12T05:18:33.592Z,96.90
2019-02-12T05:23:39.246Z,98.00
2019-02-12T05:28:44.997Z,98.60
2019-02-12T05:33:50.633Z,98.60
2019-02-12T05:38:56.273Z,98.60
2019-02-12T05:44:01.962Z,98.40
2019-02-12T05:49:07.813Z,97.90
2019-02-12T05:54:13.754Z,96.70
2019-02-12T05:59:19.434Z,96.90
2019-02-12T06:04:25.064Z,96.70
2019-02-12T06:09:30.772Z,96.60
2019-02-12T06:14:36.498Z,96.40
2019-02-12T06:19:42.132Z,96.70
2019-02-12T06:24:47.839Z,96.90
2019-02-12T06:29:53.475Z,97.00
2019-02-12T06:34:59.112Z,96.50
2019-02-12T06:40:05.422Z,96.00
2019-02-12T06:45:11.349Z,95.90
2019-02-12T06:50:16.963Z,96.00
2019-02-12T06:55:22.611Z,95.50
2019-02-12T07:00:28.301Z,95.60
2019-02-12T07:05:34.013Z,96.20
2019-02-12T07:10:40.037Z,97.20
2019-02-12T07:16:16.139Z,97.80
2019-02-12T07:21:36.985Z,98.20
2019-02-12T07:27:24.663Z,98.30
2019-02-12T07:32:59.301Z,98.70
2019-02-12T07:38:43.201Z,98.70
2019-02-12T07:44:05.453Z,99.10
2019-02-12T07:49:53.790Z,99.40
2019-02-12T07:55:45.135Z,99.80
2019-02-12T08:01:40.545Z,99.50
2019-02-12T08:07:22.541Z,99.50
2019-02-12T08:13:05.734Z,99.70
2019-02-12T08:18:58.316Z,99.90
2019-02-12T08:24:34.389Z,99.90
2019-02-12T08:30:23.668Z,99.90
2019-02-12T08:36:06.005Z,99.90
2019-02-12T08:41:44.699Z,99.90
2019-02-12T08:47:24.937Z,99.90
2019-02-12T08:53:04.876Z,99.90
2019-02-12T08:58:44.080Z,99.90
2019-02-12T09:04:36.632Z,99.50
2019-02-12T09:10:09.407Z,99.30
2019-02-12T09:15:56.260Z,99.40
2019-02-12T09:21:30.787Z,99.30
2019-02-12T09:26:52.094Z,98.70
2019-02-12T09:32:41.759Z,99.10
2019-02-12T09:38:28.238Z,98.80
2019-02-12T09:44:26.973Z,98.00
2019-02-12T09:50:16.258Z,97.50
2019-02-12T09:55:44.541Z,97.20
2019-02-12T10:00:58.879Z,96.70
2019-02-12T10:06:45.137Z,94.30
2019-02-12T10:12:37.946Z,91.00
2019-02-12T10:17:59.425Z,91.70
2019-02-12T10:24:07.539Z,93.20
2019-02-12T10:30:03.149Z,93.60
2019-02-12T10:35:09.837Z,94.40
2019-02-12T10:40:15.587Z,95.50
2019-02-12T10:45:22.361Z,96.30
2019-02-12T10:50:28.061Z,96.60
2019-02-12T10:55:33.699Z,96.90
2019-02-12T11:00:39.425Z,97.00
2019-02-12T11:05:45.033Z,96.20
2019-02-12T11:10:50.791Z,96.70
2019-02-12T11:15:56.523Z,96.40
2019-02-12T11:21:02.174Z,95.90
2019-02-12T11:26:07.805Z,95.30
2019-02-12T11:31:13.531Z,95.40
2019-02-12T11:36:19.200Z,95.00
2019-02-12T11:41:24.922Z,94.20
2019-02-12T11:46:30.672Z,94.00
2019-02-12T11:51:36.335Z,94.00
2019-02-12T11:56:42.018Z,92.80
2019-02-12T12:01:47.672Z,92.60
2019-02-12T12:06:53.315Z,92.50
2019-02-12T12:11:58.970Z,92.40
2019-02-12T12:17:04.692Z,91.30
2019-02-12T12:22:10.381Z,90.40
2019-02-12T12:27:16.032Z,91.80
2019-02-12T12:32:21.723Z,94.00
2019-02-12T12:37:27.436Z,96.60
2019-02-12T12:42:33.059Z,98.20
2019-02-12T12:47:38.707Z,97.70
2019-02-12T12:52:44.334Z,96.60
2019-02-12T12:57:49.977Z,95.50
2019-02-12T13:02:55.686Z,94.00
2019-02-12T13:08:01.435Z,93.50
2019-02-12T13:13:07.041Z,92.80
2019-02-12T13:18:12.690Z,93.40
2019-02-12T13:23:18.342Z,93.90
2019-02-12T13:28:23.944Z,94.20
2019-02-12T13:33:29.574Z,94.10
2019-02-12T13:38:35.301Z,93.30
2019-02-12T13:43:40.952Z,93.20
2019-02-12T13:48:46.561Z,94.00
2019-02-12T13:53:53.269Z,94.30
2019-02-12T13:58:59.010Z,94.50
2019-02-12T14:04:04.740Z,94.60
2019-02-12T14:09:10.380Z,94.60
2019-02-12T14:14:16.135Z,94.60
2019-02-12T14:19:21.838Z,94.00
2019-02-12T14:24:27.713Z,94.90
2019-02-12T14:29:33.636Z,95.00
2019-02-12T14:34:39.734Z,95.00
2019-02-12T14:39:45.770Z,95.10
2019-02-12T14:44:51.749Z,95.20
2019-02-12T14:49:57.636Z,95.80
2019-02-12T14:55:03.597Z,96.10
2019-02-12T15:00:12.418Z,96.30
2019-02-12T15:05:18.490Z,96.80
2019-02-12T15:10:24.906Z,96.50
2019-02-12T15:15:30.767Z,95.80
2019-02-12T15:20:36.748Z,95.20
2019-02-12T15:25:42.610Z,96.00
2019-02-12T15:30:48.592Z,96.50
2019-02-12T15:35:54.555Z,96.70
2019-02-12T15:41:00.675Z,96.80
2019-02-12T15:46:06.781Z,96.60
2019-02-12T15:51:12.764Z,96.90
2019-02-12T15:56:18.736Z,96.80
2019-02-12T16:01:26.224Z,96.90
2019-02-12T16:06:32.230Z,97.00
2019-02-12T16:11:37.913Z,97.20
2019-02-12T16:16:43.608Z,97.40
2019-02-12T16:21:49.268Z,97.40
2019-02-12T16:26:55.013Z,98.10
2019-02-12T16:32:00.763Z,98.10
2019-02-12T16:37:06.510Z,98.10
2019-02-12T16:42:12.337Z,98.20
2019-02-12T16:47:18.444Z,98.30
2019-02-12T16:52:24.442Z,98.30
2019-02-12T16:57:30.824Z,97.60
2019-02-12T17:02:36.992Z,98.20
2019-02-12T17:07:43.380Z,98.60
2019-02-12T17:12:49.461Z,99.10
2019-02-12T17:17:55.344Z,99.10
2019-02-12T17:23:01.283Z,99.20
2019-02-12T17:28:07.467Z,99.40
2019-02-12T17:33:13.652Z,99.40
2019-02-12T17:38:19.641Z,99.50
2019-02-12T17:43:25.852Z,99.40
2019-02-12T17:48:31.979Z,99.40
2019-02-12T17:53:38.059Z,99.00
2019-02-12T17:58:44.049Z,98.60
2019-02-12T18:03:50.261Z,98.80
2019-02-12T18:08:56.379Z,98.90
2019-02-12T18:14:02.554Z,98.90
2019-02-12T18:19:08.621Z,99.10
2019-02-12T18:24:14.741Z,99.20
2019-02-12T18:29:20.868Z,98.80
2019-02-12T18:34:28.194Z,99.00
2019-02-12T18:39:34.340Z,98.80
2019-02-12T18:44:41.912Z,99.00
2019-02-12T18:49:47.974Z,99.50
2019-02-12T18:54:54.104Z,99.50
2019-02-12T19:00:00.263Z,99.70
2019-02-12T19:05:06.775Z,99.80
2019-02-12T19:10:13.721Z,99.40
2019-02-12T19:15:21.001Z,98.90
2019-02-12T19:20:29.069Z,98.90
2019-02-12T19:25:37.081Z,99.00
2019-02-12T19:30:43.307Z,99.20
2019-02-12T19:35:50.611Z,99.20
2019-02-12T19:40:56.910Z,99.10
2019-02-12T19:46:02.922Z,98.90
2019-02-12T19:51:09.492Z,98.30
2019-02-12T19:56:15.774Z,98.20
2019-02-12T20:01:21.792Z,97.90
2019-02-12T20:06:28.120Z,98.10
2019-02-12T20:11:34.237Z,98.40
2019-02-12T20:16:40.323Z,98.90
2019-02-12T20:21:46.360Z,98.40
2019-02-12T20:26:52.370Z,97.90
2019-02-12T20:31:58.665Z,98.20
2019-02-12T20:37:04.826Z,98.30
2019-02-12T20:42:12.036Z,98.40
2019-02-12T20:47:18.109Z,98.70
2019-02-12T20:52:24.182Z,98.90
2019-02-12T20:57:30.189Z,98.90
2019-02-12T21:02:36.477Z,98.90
2019-02-12T21:07:42.560Z,99.10
2019-02-12T21:12:48.729Z,99.00
2019-02-12T21:17:56.082Z,99.10
2019-02-12T21:23:02.250Z,99.20
2019-02-12T21:28:08.183Z,99.00
2019-02-12T21:33:14.229Z,99.30
2019-02-12T21:38:21.615Z,99.30
2019-02-12T21:43:27.838Z,99.80
2019-02-12T21:48:33.501Z,99.90
2019-02-12T21:53:39.214Z,99.80
2019-02-12T21:58:44.867Z,99.90
2019-02-12T22:03:50.545Z,99.90
2019-02-12T22:08:56.253Z,99.90
2019-02-12T22:14:01.952Z,99.90
2019-02-12T22:19:07.558Z,99.60
2019-02-12T22:24:13.338Z,99.70
2019-02-12T22:29:19.025Z,99.50
2019-02-12T22:34:24.726Z,99.80
2019-02-12T22:39:30.357Z,99.90
2019-02-12T22:44:36.065Z,99.90
2019-02-12T22:49:41.780Z,99.90
2019-02-12T22:54:47.402Z,99.90
2019-02-12T22:59:53.099Z,99.90
2019-02-12T23:04:59.849Z,99.90
2019-02-12T23:10:06.092Z,99.90
2019-02-12T23:15:11.804Z,99.80
2019-02-12T23:20:17.424Z,99.60
2019-02-12T23:25:23.116Z,99.60
2019-02-12T23:30:28.841Z,99.90
2019-02-12T23:35:34.539Z,99.90
2019-02-12T23:40:40.238Z,99.90
2019-02-12T23:45:45.945Z,99.90
2019-02-12T23:50:51.583Z,99.90
2019-02-12T23:55:57.205Z,99.90
